Time;durP1;ratioP1;P1;durP2;ratioP2;P2;SDS_P1;SDS_P2;PMS_P1;PMS_P2;Temp;Humidity;BMP_temperature;BMP_pressure;BME280_temperature;BME280_humidity;BME280_pressure;Samples;Min_cycle;Max_cycle;Signal;HPM_P1;HPM_P2
2023/07/06 10:34:58;;;;;;;3.10;2.70;;;26.30;81.90;;;;;;5149191;27;20591;-43
2023/07/06 10:37:27;;;;;;;4.90;2.27;;;26.80;74.90;;;;;;5115210;27;60173;-43
2023/07/06 10:40:16;;;;;;;5.13;2.53;;;26.80;74.60;;;;;;5086954;28;20491;-43
2023/07/06 10:42:49;;;;;;;2.70;2.30;;;26.90;74.10;;;;;;5088322;23;20511;-33
2023/07/06 10:45:39;;;;;;;3.10;2.00;;;26.90;74.10;;;;;;5037270;28;21084;-36
2023/07/06 10:48:14;;;;;;;2.40;2.27;;;28.20;98.30;;;;;;5018236;28;20840;-49
2023/07/06 10:50:49;;;;;;;3.00;2.57;;;28.20;74.20;;;;;;5026716;28;20452;-52
2023/07/06 10:57:11;;;;;;;3.27;2.97;;;28.20;59.40;;;;;;5086769;28;20555;-67
2023/07/06 10:59:41;;;;;;;3.07;2.83;;;27.90;58.20;;;;;;5087150;28;20493;-61
2023/07/06 11:02:20;;;;;;;3.40;2.63;;;27.70;58.60;;;;;;5086486;27;20453;-67
2023/07/06 11:05:10;;;;;;;3.13;2.10;;;27.70;58.50;;;;;;5087226;28;20457;-68
2023/07/06 11:07:45;;;;;;;2.60;2.40;;;27.40;57.70;;;;;;5084804;28;20527;-67
2023/07/06 11:10:24;;;;;;;3.90;3.50;;;27.20;57.20;;;;;;5086814;28;20931;-67
2023/07/06 11:12:54;;;;;;;2.10;2.00;;;26.90;59.00;;;;;;5085916;28;20601;-67
2023/07/06 11:15:25;;;;;;;2.73;2.53;;;26.60;57.40;;;;;;5087224;28;20493;-67
2023/07/06 11:17:54;;;;;;;3.40;3.10;;;26.30;57.90;;;;;;5086979;28;20846;-67
2023/07/06 11:20:24;;;;;;;3.77;2.63;;;26.00;57.70;;;;;;5086734;28;20486;-68
2023/07/06 11:22:56;;;;;;;3.23;2.93;;;25.80;57.70;;;;;;5087110;28;20474;-67
2023/07/06 11:25:23;;;;;;;3.10;2.90;;;25.80;58.90;;;;;;5087034;28;20445;-67
2023/07/06 11:27:59;;;;;;;2.50;2.30;;;25.60;57.80;;;;;;5086972;28;20456;-67
2023/07/06 11:30:32;;;;;;;2.93;2.73;;;25.40;60.70;;;;;;5086650;28;20452;-67
2023/07/06 11:33:13;;;;;;;4.00;2.30;;;25.40;59.80;;;;;;5087092;28;20469;-67
2023/07/06 11:35:49;;;;;;;5.93;3.23;;;25.60;58.90;;;;;;5086657;28;20490;-68
2023/07/06 11:38:42;;;;;;;2.80;2.60;;;25.50;59.10;;;;;;5086994;28;20459;-66
2023/07/06 11:41:13;;;;;;;2.83;2.63;;;25.30;58.40;;;;;;5086650;28;20460;-68
2023/07/06 11:43:55;;;;;;;2.30;2.20;;;25.20;58.50;;;;;;5086761;28;20473;-68
2023/07/06 11:46:38;;;;;;;2.80;2.60;;;25.10;59.50;;;;;;5084972;28;20533;-68
2023/07/06 11:49:22;;;;;;;3.87;3.20;;;25.30;62.70;;;;;;5079801;28;20446;-67
2023/07/06 11:51:50;;;;;;;2.70;2.50;;;25.40;60.50;;;;;;5074120;28;20445;-67
2023/07/06 11:54:39;;;;;;;2.80;2.60;;;25.50;59.40;;;;;;5077905;28;20473;-67
2023/07/06 11:57:25;;;;;;;3.10;2.53;;;25.70;61.20;;;;;;5065440;28;20492;-68
2023/07/06 12:00:14;;;;;;;3.30;3.00;;;26.10;60.20;;;;;;5066649;28;20444;-68
2023/07/06 12:02:41;;;;;;;3.00;2.80;;;26.30;58.50;;;;;;5066359;28;20507;-68
2023/07/06 12:05:27;;;;;;;3.43;3.13;;;26.40;58.30;;;;;;5066630;28;20449;-68
2023/07/06 12:07:59;;;;;;;3.53;2.93;;;26.50;57.60;;;;;;5055639;28;21030;-67
2023/07/06 12:10:26;;;;;;;3.00;2.80;;;26.60;57.40;;;;;;5053426;28;20555;-67
2023/07/06 12:12:54;;;;;;;2.87;2.10;;;26.70;56.90;;;;;;5052828;28;20469;-67
2023/07/06 12:15:23;;;;;;;3.37;3.07;;;26.90;57.40;;;;;;5052548;28;20485;-67
2023/07/06 12:17:55;;;;;;;4.93;3.00;;;27.00;57.00;;;;;;5052636;28;20471;-68
2023/07/06 12:20:25;;;;;;;3.23;2.80;;;27.20;57.20;;;;;;5063448;28;20453;-70
2023/07/06 12:22:54;;;;;;;3.17;2.87;;;27.30;55.60;;;;;;5058384;28;20543;-67
2023/07/06 12:25:24;;;;;;;3.10;2.90;;;27.40;54.40;;;;;;5052892;28;20459;-67
2023/07/06 12:27:56;;;;;;;2.37;2.27;;;27.50;56.20;;;;;;5052584;28;20452;-67
2023/07/06 12:30:30;;;;;;;3.07;2.37;;;27.50;56.00;;;;;;5052758;28;20465;-68
2023/07/06 12:32:58;;;;;;;2.67;2.47;;;27.70;55.60;;;;;;5052380;28;20481;-68
2023/07/06 12:35:27;;;;;;;3.33;2.83;;;27.80;54.90;;;;;;5052551;28;20460;-67
2023/07/06 12:37:56;;;;;;;4.07;3.67;;;27.90;54.30;;;;;;5052791;28;20460;-67
2023/07/06 12:40:26;;;;;;;2.80;2.60;;;28.00;54.10;;;;;;5052879;28;20463;-67
2023/07/06 12:42:53;;;;;;;2.50;2.33;;;28.30;54.70;;;;;;5052739;28;20478;-68
2023/07/06 12:45:23;;;;;;;3.00;2.80;;;28.60;54.60;;;;;;5052662;28;20451;-68
2023/07/06 12:47:58;;;;;;;3.10;2.57;;;28.60;51.20;;;;;;5052634;28;20459;-67
2023/07/06 12:50:30;;;;;;;2.63;2.43;;;28.70;54.10;;;;;;5052351;28;21011;-69
2023/07/06 12:53:08;;;;;;;2.60;2.37;;;28.70;51.30;;;;;;5052643;28;20827;-67
2023/07/06 12:55:36;;;;;;;2.67;2.47;;;28.50;53.70;;;;;;5052379;28;20484;-68
2023/07/06 12:58:28;;;;;;;2.43;2.30;;;28.60;52.90;;;;;;5051886;28;20479;-68
2023/07/06 13:01:03;;;;;;;3.60;3.33;;;28.80;53.80;;;;;;5047521;28;20834;-68
2023/07/06 13:03:31;;;;;;;3.20;2.90;;;28.90;52.60;;;;;;5052188;28;20555;-68
2023/07/06 13:06:00;;;;;;;3.80;2.83;;;29.00;53.20;;;;;;5051811;28;20444;-69
2023/07/06 13:08:27;;;;;;;3.03;2.80;;;29.20;52.40;;;;;;5051985;28;20839;-68
2023/07/06 13:11:02;;;;;;;2.80;2.57;;;29.30;53.20;;;;;;5051892;28;21041;-68
2023/07/06 13:13:34;;;;;;;2.90;2.70;;;29.50;51.40;;;;;;5052186;28;20550;-68
2023/07/06 13:16:06;;;;;;;2.30;2.10;;;29.70;49.80;;;;;;5051418;28;20484;-68
2023/07/06 13:18:37;;;;;;;3.43;2.40;;;29.70;50.10;;;;;;5051013;28;20892;-68
2023/07/06 13:21:06;;;;;;;3.20;2.90;;;29.50;51.00;;;;;;5051541;28;20440;-67
2023/07/06 13:23:34;;;;;;;2.50;2.40;;;29.30;49.20;;;;;;5051762;28;20476;-69
2023/07/06 13:26:02;;;;;;;2.70;2.50;;;29.40;50.90;;;;;;5057939;28;20447;-68
2023/07/06 13:28:28;;;;;;;2.63;2.43;;;29.30;49.50;;;;;;5071691;28;20487;-68
2023/07/06 13:30:55;;;;;;;2.73;2.53;;;29.10;51.40;;;;;;5071543;28;20535;-68
2023/07/06 13:33:23;;;;;;;2.67;2.47;;;28.90;50.40;;;;;;5070987;28;21065;-68
2023/07/06 13:35:51;;;;;;;3.27;3.07;;;28.70;52.50;;;;;;5070905;28;20996;-68
2023/07/06 13:38:18;;;;;;;2.90;2.60;;;28.70;53.20;;;;;;5071356;28;20879;-68
2023/07/06 13:40:48;;;;;;;3.40;3.10;;;29.00;52.00;;;;;;5069924;28;20536;-67
2023/07/06 13:43:16;;;;;;;3.00;2.73;;;29.10;50.00;;;;;;5069153;28;20556;-68
2023/07/06 13:45:44;;;;;;;3.17;2.87;;;28.90;51.30;;;;;;5070950;28;20453;-68
2023/07/06 13:48:14;;;;;;;3.07;2.17;;;28.70;50.80;;;;;;5070594;28;20456;-66
2023/07/06 13:50:41;;;;;;;2.50;2.30;;;28.50;51.80;;;;;;5070866;28;20460;-67
2023/07/06 13:53:11;;;;;;;2.60;2.40;;;28.50;51.60;;;;;;5070882;28;20471;-69
2023/07/06 13:55:48;;;;;;;2.83;2.63;;;28.70;50.40;;;;;;5070457;28;20451;-68
2023/07/06 13:58:16;;;;;;;3.27;2.97;;;28.60;50.80;;;;;;5070509;28;21029;-68
2023/07/06 14:00:46;;;;;;;3.57;2.70;;;28.50;51.10;;;;;;5070679;28;20550;-70
2023/07/06 14:03:15;;;;;;;3.00;2.70;;;28.60;52.20;;;;;;5070672;28;20466;-69
2023/07/06 14:05:43;;;;;;;3.40;2.47;;;29.00;49.70;;;;;;5064506;28;20969;-71
2023/07/06 14:08:11;;;;;;;3.67;2.77;;;29.70;50.00;;;;;;5070298;28;20546;-71
2023/07/06 14:10:39;;;;;;;3.23;2.93;;;29.80;48.40;;;;;;5057461;28;20506;-70
2023/07/06 14:13:07;;;;;;;2.60;2.40;;;29.60;49.80;;;;;;5060439;28;20562;-69
2023/07/06 14:15:37;;;;;;;2.87;2.50;;;29.30;51.20;;;;;;5070252;28;20524;-71
2023/07/06 14:18:07;;;;;;;2.60;2.40;;;29.70;50.80;;;;;;5068923;28;20450;-69
2023/07/06 14:20:35;;;;;;;3.30;2.60;;;31.00;50.40;;;;;;5070470;28;20452;-70
2023/07/06 14:23:02;;;;;;;2.50;2.30;;;32.40;47.40;;;;;;5070515;28;20471;-70
2023/07/06 14:25:33;;;;;;;3.00;2.70;;;33.80;44.20;;;;;;5070278;28;20456;-68
2023/07/06 14:28:00;;;;;;;5.90;2.50;;;35.00;45.00;;;;;;5070483;28;20445;-70
2023/07/06 14:30:30;;;;;;;3.30;3.00;;;36.40;43.70;;;;;;5070440;28;20475;-71
2023/07/06 14:32:58;;;;;;;3.40;2.67;;;37.60;38.30;;;;;;5070565;28;20533;-70
2023/07/06 14:35:25;;;;;;;3.40;3.10;;;38.80;39.40;;;;;;5070506;28;20443;-70
2023/07/06 14:37:52;;;;;;;4.13;2.97;;;39.80;37.60;;;;;;5070104;28;20479;-70
2023/07/06 14:40:19;;;;;;;4.50;2.50;;;40.80;35.30;;;;;;5070616;28;20463;-71
2023/07/06 14:42:53;;;;;;;3.10;2.90;;;41.20;32.20;;;;;;5070229;28;20471;-70
2023/07/06 14:45:20;;;;;;;2.90;2.70;;;41.30;31.90;;;;;;5070638;28;20447;-70
2023/07/06 14:47:47;;;;;;;3.77;2.77;;;41.00;30.00;;;;;;5065667;28;20475;-70
2023/07/06 14:50:14;;;;;;;3.13;2.53;;;40.60;31.60;;;;;;5069676;28;20451;-71
2023/07/06 14:52:43;;;;;;;3.83;3.60;;;40.70;30.80;;;;;;5066198;28;20502;-71
2023/07/06 14:55:12;;;;;;;2.90;2.70;;;40.70;29.40;;;;;;5064196;28;21187;-70
2023/07/06 14:57:39;;;;;;;2.70;2.50;;;40.80;30.40;;;;;;5066545;28;20479;-71
2023/07/06 15:00:12;;;;;;;3.53;2.40;;;40.90;29.20;;;;;;5070001;28;20439;-70
2023/07/06 15:02:39;;;;;;;2.53;2.33;;;41.00;30.30;;;;;;5065692;28;20471;-70
2023/07/06 15:05:06;;;;;;;4.97;4.60;;;40.90;30.60;;;;;;5070120;28;20944;-70
2023/07/06 15:07:34;;;;;;;3.53;3.33;;;40.70;29.20;;;;;;5069590;28;20530;-70
2023/07/06 15:10:01;;;;;;;3.07;2.77;;;40.60;29.20;;;;;;5070405;28;20448;-70
2023/07/06 15:12:28;;;;;;;2.40;2.20;;;40.80;28.30;;;;;;5070130;28;20467;-69
2023/07/06 15:14:54;;;;;;;2.20;2.00;;;40.50;27.90;;;;;;5070149;28;20444;-69
2023/07/06 15:17:23;;;;;;;3.00;2.80;;;39.80;29.40;;;;;;5069648;28;20494;-70
2023/07/06 15:19:50;;;;;;;2.70;2.50;;;38.80;29.40;;;;;;5069856;28;20447;-70
2023/07/06 15:22:17;;;;;;;3.53;3.23;;;37.50;29.50;;;;;;5070108;28;20585;-69
2023/07/06 15:24:44;;;;;;;3.57;3.27;;;36.20;31.30;;;;;;5070220;28;20458;-68
2023/07/06 15:27:10;;;;;;;3.30;3.00;;;35.00;32.40;;;;;;5069673;28;20974;-68
2023/07/06 15:29:37;;;;;;;2.50;2.30;;;33.80;34.40;;;;;;5070015;28;20455;-68
2023/07/06 15:32:05;;;;;;;2.83;2.50;;;32.90;34.40;;;;;;5069761;28;20533;-69
2023/07/06 15:34:33;;;;;;;3.27;2.60;;;32.00;35.80;;;;;;5051402;28;20457;-69
2023/07/06 15:37:00;;;;;;;3.37;2.97;;;31.40;37.10;;;;;;5061993;28;20828;-68
2023/07/06 15:39:27;;;;;;;3.13;2.93;;;30.90;38.30;;;;;;5069150;28;20542;-68
2023/07/06 15:41:54;;;;;;;3.17;2.87;;;30.50;38.30;;;;;;5070070;28;20461;-68
2023/07/06 15:44:21;;;;;;;5.03;2.83;;;30.10;38.80;;;;;;5073383;28;20558;-69
2023/07/06 15:46:48;;;;;;;3.37;2.83;;;29.70;39.30;;;;;;5072672;28;20952;-68
2023/07/06 15:49:17;;;;;;;3.60;3.30;;;29.50;39.50;;;;;;5073448;28;20823;-67
2023/07/06 15:51:45;;;;;;;2.90;2.70;;;29.10;39.80;;;;;;5073332;28;20847;-68
2023/07/06 15:54:13;;;;;;;3.50;3.20;;;28.90;40.90;;;;;;5073199;28;20470;-69
2023/07/06 15:56:40;;;;;;;3.20;2.90;;;28.60;40.60;;;;;;5072458;28;20570;-70
2023/07/06 15:59:09;;;;;;;3.83;2.73;;;28.50;41.90;;;;;;5064893;28;20443;-69
2023/07/06 16:01:36;;;;;;;2.60;2.27;;;28.30;42.30;;;;;;5059122;28;20440;-69
2023/07/06 16:04:05;;;;;;;3.00;2.80;;;28.20;41.10;;;;;;5058784;28;20467;-69
2023/07/06 16:06:35;;;;;;;2.83;2.63;;;28.00;42.30;;;;;;5069086;28;20532;-69
2023/07/06 16:09:05;;;;;;;3.67;3.03;;;27.90;42.20;;;;;;5073341;28;21103;-69
2023/07/06 16:11:33;;;;;;;2.50;2.30;;;27.70;42.80;;;;;;5072975;28;20450;-68
2023/07/06 16:14:00;;;;;;;4.03;2.70;;;27.70;43.80;;;;;;5072841;28;20539;-68
2023/07/06 16:16:28;;;;;;;2.77;2.30;;;27.70;43.20;;;;;;5067410;28;20473;-69
2023/07/06 16:18:54;;;;;;;2.63;2.43;;;27.60;42.90;;;;;;5064918;28;20811;-69
2023/07/06 16:21:21;;;;;;;3.53;3.07;;;27.50;44.10;;;;;;5072889;28;20536;-69
2023/07/06 16:23:49;;;;;;;3.20;2.90;;;27.40;44.10;;;;;;5072603;28;20553;-68
2023/07/06 16:26:19;;;;;;;2.70;2.50;;;27.40;44.60;;;;;;5072687;28;20853;-69
2023/07/06 16:28:48;;;;;;;2.70;2.47;;;27.40;45.20;;;;;;5073328;28;20505;-68
2023/07/06 16:31:15;;;;;;;2.80;2.30;;;27.30;43.90;;;;;;5073061;28;20523;-69
2023/07/06 16:33:42;;;;;;;3.63;2.90;;;27.30;43.10;;;;;;5073042;28;20472;-68
2023/07/06 16:36:11;;;;;;;2.70;2.50;;;27.10;43.70;;;;;;5071631;28;20450;-67
2023/07/06 16:38:38;;;;;;;2.50;2.30;;;27.00;42.90;;;;;;5072111;28;20576;-67
2023/07/06 16:41:07;;;;;;;3.03;2.53;;;26.90;43.40;;;;;;5072380;28;20481;-68
2023/07/06 16:43:35;;;;;;;2.60;2.40;;;26.70;43.70;;;;;;5071859;28;20480;-67
2023/07/06 16:46:03;;;;;;;2.80;2.60;;;26.60;43.60;;;;;;5072496;28;20459;-67
2023/07/06 16:48:32;;;;;;;2.70;2.47;;;26.50;44.40;;;;;;5072585;28;20442;-67
2023/07/06 16:51:01;;;;;;;3.40;3.10;;;26.50;44.70;;;;;;5072589;28;20975;-67
2023/07/06 16:53:28;;;;;;;2.63;2.43;;;26.40;44.60;;;;;;5072338;28;20470;-67
2023/07/06 16:55:55;;;;;;;3.17;2.97;;;26.40;44.20;;;;;;5072275;28;20573;-67
2023/07/06 16:58:21;;;;;;;4.90;2.60;;;26.30;44.40;;;;;;5072340;28;20484;-67
2023/07/06 17:00:50;;;;;;;4.20;2.73;;;26.30;45.80;;;;;;5072443;28;20459;-67
2023/07/06 17:03:17;;;;;;;2.90;2.70;;;26.20;46.10;;;;;;5071824;28;20476;-67
2023/07/06 17:05:46;;;;;;;3.00;2.80;;;26.20;45.70;;;;;;5072246;28;20458;-67
2023/07/06 17:08:13;;;;;;;2.80;2.43;;;26.20;45.80;;;;;;5072184;28;20447;-67
2023/07/06 17:10:39;;;;;;;2.40;2.13;;;26.20;45.90;;;;;;5072204;28;20468;-67
2023/07/06 17:13:06;;;;;;;4.33;2.83;;;26.20;46.40;;;;;;5071665;28;20824;-66
2023/07/06 17:15:33;;;;;;;3.10;2.63;;;26.10;47.00;;;;;;5071314;28;20450;-67
2023/07/06 17:18:01;;;;;;;3.10;2.80;;;26.10;47.10;;;;;;5071527;28;20914;-67
2023/07/06 17:20:28;;;;;;;3.57;3.27;;;26.10;47.90;;;;;;5071785;28;20895;-67
2023/07/06 17:22:55;;;;;;;2.83;2.60;;;26.10;45.90;;;;;;5071975;28;20477;-66
2023/07/06 17:25:22;;;;;;;3.20;2.90;;;26.00;46.20;;;;;;5071059;28;20534;-66
2023/07/06 17:27:49;;;;;;;3.30;2.73;;;26.00;46.20;;;;;;5071619;28;20457;-66
2023/07/06 17:30:16;;;;;;;2.60;2.50;;;25.90;46.50;;;;;;5071765;28;20975;-67
2023/07/06 17:32:43;;;;;;;3.10;2.57;;;25.90;46.60;;;;;;5071684;28;20459;-66
2023/07/06 17:35:11;;;;;;;3.13;2.93;;;25.80;47.00;;;;;;5071269;28;20451;-67
2023/07/06 17:37:38;;;;;;;3.13;2.53;;;25.80;47.20;;;;;;5071497;28;20582;-67
2023/07/06 17:40:06;;;;;;;2.57;2.37;;;25.80;47.20;;;;;;5071894;28;20453;-66
2023/07/06 17:42:33;;;;;;;2.83;2.63;;;25.70;47.70;;;;;;5071406;28;20476;-66
2023/07/06 17:44:59;;;;;;;5.60;3.00;;;25.70;47.20;;;;;;5071626;28;20457;-66
2023/07/06 17:47:26;;;;;;;3.00;2.80;;;25.70;47.50;;;;;;5069978;28;20536;-66
2023/07/06 17:49:53;;;;;;;2.87;2.67;;;25.60;47.50;;;;;;5053089;28;20461;-67
2023/07/06 17:52:21;;;;;;;2.67;2.47;;;25.60;47.70;;;;;;5051370;28;20454;-67
2023/07/06 17:54:48;;;;;;;3.40;2.67;;;25.50;48.10;;;;;;5057875;28;20496;-67
2023/07/06 17:57:15;;;;;;;2.43;2.33;;;25.50;48.80;;;;;;5082277;28;20482;-66
2023/07/06 17:59:42;;;;;;;2.67;2.47;;;25.40;50.60;;;;;;5091386;28;20526;-67
2023/07/06 18:02:09;;;;;;;2.57;2.37;;;25.40;50.60;;;;;;5091045;28;20454;-67
2023/07/06 18:04:36;;;;;;;3.57;3.27;;;25.20;50.60;;;;;;5072344;28;20449;-67
2023/07/06 18:07:03;;;;;;;3.20;2.27;;;25.20;51.20;;;;;;5070791;28;20450;-66
2023/07/06 18:09:31;;;;;;;2.67;2.47;;;25.10;51.40;;;;;;5071030;28;20448;-67
2023/07/06 18:11:58;;;;;;;3.30;2.70;;;24.90;52.30;;;;;;5070855;28;20947;-66
2023/07/06 18:14:25;;;;;;;5.37;2.33;;;24.80;52.80;;;;;;5070978;28;20832;-66
2023/07/06 18:16:52;;;;;;;5.30;3.00;;;24.80;53.70;;;;;;5070482;28;21002;-67
2023/07/06 18:19:19;;;;;;;4.43;3.27;;;24.70;53.70;;;;;;5071172;28;20484;-67
2023/07/06 18:21:46;;;;;;;2.60;2.40;;;24.60;54.20;;;;;;5070771;28;21071;-67
2023/07/06 18:24:14;;;;;;;2.70;2.50;;;24.40;54.40;;;;;;5063794;22;20499;-67
2023/07/06 18:26:42;;;;;;;2.70;2.20;;;24.30;54.70;;;;;;5010583;28;20450;-67
2023/07/06 18:29:09;;;;;;;2.93;2.63;;;24.10;55.00;;;;;;5011585;28;20449;-67
2023/07/06 18:31:35;;;;;;;2.73;2.50;;;24.00;55.40;;;;;;5011405;28;20456;-67
2023/07/06 18:34:02;;;;;;;2.40;2.20;;;23.80;56.00;;;;;;5011547;28;20477;-66
2023/07/06 18:36:29;;;;;;;2.67;2.17;;;23.70;56.40;;;;;;5018416;28;20840;-66
2023/07/06 18:38:56;;;;;;;2.30;2.10;;;23.60;56.80;;;;;;5023235;28;20564;-67
2023/07/06 18:41:24;;;;;;;4.20;2.60;;;23.40;57.10;;;;;;5031211;28;20449;-67
2023/07/06 18:43:52;;;;;;;2.97;2.60;;;23.30;57.50;;;;;;5022630;28;20557;-66
2023/07/06 18:46:19;;;;;;;2.63;2.40;;;23.10;57.80;;;;;;5025620;28;20449;-67
2023/07/06 18:48:46;;;;;;;2.80;2.33;;;23.00;58.50;;;;;;5030925;28;21020;-66
2023/07/06 18:51:13;;;;;;;3.37;2.70;;;22.90;59.10;;;;;;5030938;28;20445;-66
2023/07/06 18:53:40;;;;;;;3.73;3.00;;;22.70;59.10;;;;;;5030793;28;20548;-65
2023/07/06 18:56:07;;;;;;;2.77;2.57;;;22.60;59.70;;;;;;5030998;28;20543;-67
2023/07/06 18:58:33;;;;;;;4.80;3.03;;;22.40;60.80;;;;;;5023901;28;20985;-66
2023/07/06 19:01:02;;;;;;;3.47;2.80;;;22.30;60.70;;;;;;5022718;28;20445;-65
2023/07/06 19:03:29;;;;;;;3.40;2.83;;;22.20;62.00;;;;;;5030946;28;20566;-66
2023/07/06 19:05:56;;;;;;;4.80;2.30;;;22.10;62.40;;;;;;5030810;28;20452;-67
2023/07/06 19:08:22;;;;;;;3.03;2.80;;;21.90;63.00;;;;;;5030820;28;20849;-67
2023/07/06 19:10:49;;;;;;;2.90;2.70;;;21.80;63.40;;;;;;5031163;28;20452;-66
2023/07/06 19:13:16;;;;;;;2.53;2.33;;;21.70;64.30;;;;;;5030886;28;20458;-66
2023/07/06 19:15:47;;;;;;;3.97;2.30;;;21.60;66.00;;;;;;5031133;28;20540;-67
2023/07/06 19:18:16;;;;;;;3.00;2.80;;;21.50;65.80;;;;;;5033777;28;21132;-65
2023/07/06 19:20:44;;;;;;;2.70;2.50;;;21.40;66.70;;;;;;5027859;28;20453;-69
2023/07/06 19:23:11;;;;;;;2.27;2.07;;;21.20;67.00;;;;;;5028750;28;20499;-69
2023/07/06 19:25:40;;;;;;;2.90;2.70;;;21.10;67.30;;;;;;5034760;28;20451;-68
2023/07/06 19:28:07;;;;;;;2.80;2.60;;;21.00;67.90;;;;;;5034555;28;20459;-68
2023/07/06 19:30:35;;;;;;;2.90;2.70;;;20.80;68.20;;;;;;5034705;28;20551;-69
2023/07/06 19:33:02;;;;;;;3.50;2.50;;;20.70;68.90;;;;;;5034477;28;20569;-69
2023/07/06 19:35:33;;;;;;;2.80;2.60;;;20.60;69.40;;;;;;5034300;28;20460;-69
2023/07/06 19:38:00;;;;;;;3.60;2.43;;;20.50;70.00;;;;;;5034177;28;21018;-67
2023/07/06 19:40:27;;;;;;;3.33;2.70;;;20.30;70.50;;;;;;5034363;28;20452;-69
2023/07/06 19:42:54;;;;;;;2.53;2.43;;;20.30;71.00;;;;;;5034311;28;20493;-69
2023/07/06 19:45:23;;;;;;;2.73;2.53;;;20.10;71.90;;;;;;5033875;28;20480;-68
2023/07/06 19:47:50;;;;;;;2.63;2.37;;;20.00;72.10;;;;;;5034276;28;20455;-68
2023/07/06 19:50:17;;;;;;;3.20;2.90;;;20.00;72.70;;;;;;5034367;28;20471;-68
2023/07/06 19:52:45;;;;;;;4.13;3.30;;;19.90;73.10;;;;;;5034250;28;20536;-68
2023/07/06 19:55:12;;;;;;;8.10;2.43;;;19.70;73.90;;;;;;5034153;28;20844;-69
2023/07/06 19:57:39;;;;;;;2.23;2.13;;;19.60;73.30;;;;;;5033717;28;20459;-68
2023/07/06 20:00:07;;;;;;;3.10;2.90;;;19.60;74.10;;;;;;5028466;28;20451;-69
2023/07/06 20:02:34;;;;;;;2.63;2.43;;;19.40;74.10;;;;;;5025866;28;20449;-68
2023/07/06 20:05:01;;;;;;;2.70;2.50;;;19.30;74.70;;;;;;5034201;28;20477;-68
2023/07/06 20:07:29;;;;;;;2.90;2.70;;;19.20;75.50;;;;;;5033903;28;20452;-67
2023/07/06 20:09:58;;;;;;;3.80;3.50;;;19.20;75.90;;;;;;5033363;28;20838;-68
2023/07/06 20:12:24;;;;;;;2.93;2.43;;;19.10;76.20;;;;;;5033803;28;20452;-68
2023/07/06 20:14:51;;;;;;;3.50;2.70;;;19.00;76.90;;;;;;5033904;28;20472;-66
2023/07/06 20:17:18;;;;;;;4.13;3.37;;;18.90;77.10;;;;;;5033580;28;20453;-68
2023/07/06 20:19:45;;;;;;;3.10;2.90;;;18.80;77.20;;;;;;5033690;28;20485;-68
2023/07/06 20:22:12;;;;;;;4.70;3.37;;;18.60;77.50;;;;;;5033549;28;20994;-68
2023/07/06 20:24:39;;;;;;;4.80;2.70;;;18.60;78.10;;;;;;5033351;28;20486;-68
2023/07/06 20:27:07;;;;;;;3.20;3.00;;;18.50;78.60;;;;;;5033529;28;20455;-67
2023/07/06 20:29:34;;;;;;;2.50;2.30;;;18.40;78.90;;;;;;5033184;28;20536;-67
2023/07/06 20:32:01;;;;;;;2.67;2.47;;;18.30;79.70;;;;;;5033522;28;20887;-68
2023/07/06 20:34:28;;;;;;;3.23;3.00;;;18.20;80.80;;;;;;5013141;28;20476;-67
2023/07/06 20:36:55;;;;;;;3.37;3.17;;;18.10;80.70;;;;;;5003455;28;20966;-68
2023/07/06 20:39:22;;;;;;;2.90;2.70;;;18.10;81.20;;;;;;5007259;28;20489;-67
2023/07/06 20:41:49;;;;;;;3.90;3.17;;;18.00;81.90;;;;;;4997178;28;20452;-67
2023/07/06 20:44:17;;;;;;;3.70;3.40;;;17.90;82.50;;;;;;5008748;28;20877;-68
2023/07/06 20:46:44;;;;;;;2.50;2.30;;;17.80;82.70;;;;;;5001983;28;20492;-67
2023/07/06 20:49:11;;;;;;;2.63;2.43;;;17.80;83.90;;;;;;5003470;28;20450;-67
2023/07/06 20:51:38;;;;;;;2.90;2.70;;;17.70;83.80;;;;;;5015556;28;20544;-67
2023/07/06 20:54:04;;;;;;;3.10;2.83;;;17.60;84.40;;;;;;5021406;28;20560;-67
2023/07/06 20:56:31;;;;;;;3.20;3.00;;;17.50;84.80;;;;;;5022934;28;20451;-67
2023/07/06 20:58:58;;;;;;;3.53;2.73;;;17.50;85.30;;;;;;5002650;28;20503;-67
2023/07/06 21:01:26;;;;;;;2.53;2.43;;;17.40;85.80;;;;;;5007242;28;20457;-67
2023/07/06 21:03:53;;;;;;;2.90;2.70;;;17.30;85.80;;;;;;4996452;28;20474;-67
2023/07/06 21:06:20;;;;;;;3.07;2.87;;;17.30;86.10;;;;;;5007613;28;20532;-67
2023/07/06 21:08:47;;;;;;;3.60;3.30;;;17.20;86.60;;;;;;5002235;28;20449;-67
2023/07/06 21:11:15;;;;;;;2.90;2.70;;;17.20;86.90;;;;;;5000328;28;20453;-67
2023/07/06 21:13:42;;;;;;;3.60;2.87;;;17.10;88.10;;;;;;5009350;28;20517;-67
2023/07/06 21:16:29;;;;;;;3.50;3.10;;;17.10;88.00;;;;;;4996500;28;20825;-67
2023/07/06 21:18:57;;;;;;;2.77;2.57;;;17.00;88.30;;;;;;5002435;28;20507;-67
2023/07/06 21:21:24;;;;;;;2.50;2.30;;;16.90;88.80;;;;;;5006713;28;20449;-67
2023/07/06 21:23:50;;;;;;;3.97;3.60;;;16.80;89.10;;;;;;4996073;28;20477;-67
2023/07/06 21:26:17;;;;;;;3.07;2.80;;;16.70;89.30;;;;;;5007449;28;20449;-67
2023/07/06 21:28:44;;;;;;;2.60;2.50;;;16.70;90.00;;;;;;5001203;28;20451;-67
2023/07/06 21:31:11;;;;;;;3.30;3.10;;;16.70;90.30;;;;;;5012920;28;20462;-67
2023/07/06 21:33:38;;;;;;;3.17;2.67;;;16.60;90.40;;;;;;5023687;28;20477;-67
2023/07/06 21:36:06;;;;;;;4.10;3.80;;;16.60;90.50;;;;;;5009302;28;20460;-68
2023/07/06 21:38:33;;;;;;;2.80;2.60;;;16.50;90.70;;;;;;4999745;28;20851;-67
2023/07/06 21:41:00;;;;;;;3.40;3.10;;;16.40;90.90;;;;;;5001023;28;20457;-68
2023/07/06 21:43:27;;;;;;;3.10;2.90;;;16.40;90.90;;;;;;5006873;28;20467;-67
2023/07/06 21:45:54;;;;;;;3.63;3.10;;;16.40;91.00;;;;;;4995896;28;20449;-68
2023/07/06 21:48:21;;;;;;;2.47;2.20;;;16.30;91.00;;;;;;5006937;28;20449;-68
2023/07/06 21:50:48;;;;;;;2.77;2.57;;;16.30;91.30;;;;;;5001534;28;20452;-68
2023/07/06 21:53:16;;;;;;;3.43;3.23;;;16.20;91.30;;;;;;4999424;28;20532;-68
2023/07/06 21:55:43;;;;;;;3.13;2.80;;;16.20;91.30;;;;;;5008478;28;20452;-68
2023/07/06 21:58:10;;;;;;;2.83;2.63;;;16.10;91.50;;;;;;4996051;28;20447;-67
2023/07/06 22:00:37;;;;;;;2.83;2.63;;;16.10;91.50;;;;;;5004624;28;21377;-67
2023/07/06 22:03:04;;;;;;;2.80;2.60;;;16.00;91.70;;;;;;5003227;28;20450;-66
2023/07/06 22:05:30;;;;;;;3.03;2.83;;;15.90;91.90;;;;;;4996991;28;20865;-67
2023/07/06 22:07:57;;;;;;;4.70;3.30;;;15.90;92.10;;;;;;4992098;28;20567;-67
2023/07/06 22:10:25;;;;;;;2.93;2.63;;;15.80;92.20;;;;;;4992427;28;20539;-68
2023/07/06 22:12:52;;;;;;;2.90;2.50;;;15.80;92.30;;;;;;4996804;28;20545;-67
2023/07/06 22:15:19;;;;;;;3.13;2.93;;;15.70;92.50;;;;;;4998498;28;20551;-67
2023/07/06 22:17:46;;;;;;;3.03;2.83;;;15.70;92.50;;;;;;5007373;28;20532;-67
2023/07/06 22:20:13;;;;;;;3.30;3.10;;;15.70;92.50;;;;;;5010881;28;20871;-67
2023/07/06 22:22:41;;;;;;;3.20;2.90;;;15.60;92.70;;;;;;4992128;28;20459;-67
2023/07/06 22:25:09;;;;;;;3.03;2.80;;;15.60;92.90;;;;;;4992045;28;20955;-68
2023/07/06 22:27:37;;;;;;;2.93;2.73;;;15.50;92.80;;;;;;4991918;28;20835;-68
2023/07/06 22:30:05;;;;;;;3.03;2.83;;;15.50;93.00;;;;;;5003714;28;20790;-67
2023/07/06 22:32:32;;;;;;;2.77;2.67;;;15.40;93.10;;;;;;5012019;28;20458;-68
2023/07/06 22:34:59;;;;;;;5.20;3.20;;;15.40;93.30;;;;;;5011599;28;20468;-67
2023/07/06 22:37:26;;;;;;;3.03;2.83;;;15.30;93.80;;;;;;5011474;28;20489;-67
2023/07/06 22:39:53;;;;;;;3.07;2.87;;;15.30;93.50;;;;;;5011587;28;20888;-68
2023/07/06 22:42:20;;;;;;;3.47;3.23;;;15.30;93.70;;;;;;5011397;28;20454;-68
2023/07/06 22:44:48;;;;;;;3.43;3.13;;;15.20;93.80;;;;;;5011282;28;20479;-68
2023/07/06 22:47:17;;;;;;;2.90;2.70;;;15.20;93.80;;;;;;5011340;28;20452;-67
2023/07/06 22:49:44;;;;;;;2.90;2.70;;;15.20;93.80;;;;;;5011590;28;20487;-67
2023/07/06 22:52:12;;;;;;;3.40;3.20;;;15.10;93.90;;;;;;5011247;28;20455;-67
2023/07/06 22:54:39;;;;;;;3.30;3.03;;;15.10;94.00;;;;;;5011416;28;20501;-68
2023/07/06 22:57:06;;;;;;;3.17;2.97;;;15.00;94.20;;;;;;5011181;28;20457;-67
2023/07/06 22:59:33;;;;;;;4.63;2.73;;;15.00;94.40;;;;;;5011091;28;20490;-68
2023/07/06 23:02:01;;;;;;;4.57;2.70;;;15.00;94.50;;;;;;5011621;28;20460;-67
2023/07/06 23:04:28;;;;;;;3.20;2.70;;;14.90;94.50;;;;;;5011429;28;20481;-68
2023/07/06 23:06:55;;;;;;;3.20;3.00;;;14.90;94.70;;;;;;5010946;28;20447;-67
2023/07/06 23:09:22;;;;;;;3.00;2.70;;;14.80;94.80;;;;;;5011250;28;20456;-67
2023/07/06 23:11:48;;;;;;;3.57;3.23;;;14.80;94.90;;;;;;5011145;28;20454;-67
2023/07/06 23:14:15;;;;;;;3.23;3.03;;;14.70;95.00;;;;;;5011054;28;20562;-67
2023/07/06 23:16:45;;;;;;;3.03;2.83;;;14.70;95.10;;;;;;5011185;28;20457;-67
2023/07/06 23:19:14;;;;;;;3.20;3.00;;;14.70;95.30;;;;;;5011242;28;20481;-68
2023/07/06 23:21:41;;;;;;;3.07;2.77;;;14.70;95.50;;;;;;4996109;28;20459;-68
2023/07/06 23:24:08;;;;;;;2.77;2.57;;;14.60;95.50;;;;;;4991285;28;20506;-67
2023/07/06 23:26:35;;;;;;;2.93;2.73;;;14.60;95.60;;;;;;4991254;28;20460;-67
2023/07/06 23:29:02;;;;;;;3.60;3.27;;;14.50;95.60;;;;;;4991568;28;20443;-67
2023/07/06 23:31:29;;;;;;;3.53;3.23;;;14.50;95.60;;;;;;4991456;28;21016;-67
2023/07/06 23:33:57;;;;;;;6.73;4.20;;;14.50;95.80;;;;;;4991465;28;20484;-67